Time;durP1;ratioP1;P1;durP2;ratioP2;P2;SDS_P1;SDS_P2;PMS_P1;PMS_P2;Temp;Humidity;BMP_temperature;BMP_pressure;BME280_temperature;BME280_humidity;BME280_pressure;Samples;Min_cycle;Max_cycle;Signal;HPM_P1;HPM_P2
2022/12/21 00:01:22;;;;;;;3.93;2.40;;;;;;;5.93;nan;96348.97;5085023;28;20216;-83
2022/12/21 00:03:53;;;;;;;3.73;2.50;;;;;;;5.96;nan;96338.66;5096143;27;20221;-83
2022/12/21 00:06:21;;;;;;;4.13;2.20;;;;;;;6.01;nan;96333.53;5091815;28;20219;-83
2022/12/21 00:08:50;;;;;;;6.47;2.93;;;;;;;6.00;nan;96353.34;5080583;28;20228;-83
2022/12/21 00:11:18;;;;;;;3.73;2.77;;;;;;;5.96;nan;96368.16;5087013;28;20324;-83
2022/12/21 00:13:45;;;;;;;4.17;3.10;;;;;;;5.87;nan;96380.03;5094302;28;20200;-84
2022/12/21 00:16:14;;;;;;;5.13;3.10;;;;;;;5.77;nan;96376.94;5095909;28;20210;-84
2022/12/21 00:18:42;;;;;;;3.73;3.20;;;;;;;5.73;nan;96375.66;5089925;28;20216;-83
2022/12/21 00:21:13;;;;;;;5.80;3.67;;;;;;;5.68;nan;96378.13;5080880;28;20292;-83
2022/12/21 00:23:41;;;;;;;4.70;3.33;;;;;;;5.71;nan;96377.69;5085568;28;20296;-83
2022/12/21 00:26:12;;;;;;;6.17;3.47;;;;;;;5.84;nan;96377.78;5083034;28;20247;-83
2022/12/21 00:28:39;;;;;;;5.20;3.50;;;;;;;5.82;nan;96369.09;5082046;28;20209;-83
2022/12/21 00:31:09;;;;;;;6.07;3.30;;;;;;;5.77;nan;96360.84;5081292;28;20213;-83
2022/12/21 00:33:37;;;;;;;6.07;3.47;;;;;;;5.71;nan;96361.63;5082462;28;20209;-83
2022/12/21 00:36:06;;;;;;;5.47;3.43;;;;;;;5.73;nan;96359.59;5102890;28;20224;-83
2022/12/21 00:38:34;;;;;;;4.80;3.40;;;;;;;5.66;nan;96353.38;5084486;28;20246;-83
2022/12/21 00:41:03;;;;;;;4.53;3.13;;;;;;;5.63;nan;96359.13;5083473;28;20200;-83
2022/12/21 00:43:33;;;;;;;3.37;2.67;;;;;;;5.57;nan;96350.03;5081654;28;20209;-83
2022/12/21 00:46:01;;;;;;;4.27;3.30;;;;;;;5.47;nan;96340.72;5084054;28;20243;-83
2022/12/21 00:48:29;;;;;;;5.67;3.50;;;;;;;5.42;nan;96352.03;5083732;28;20216;-83
2022/12/21 00:51:03;;;;;;;4.30;3.30;;;;;;;5.40;nan;96348.72;5083088;28;20233;-83
2022/12/21 00:53:30;;;;;;;5.83;3.60;;;;;;;5.39;nan;96331.00;5083757;28;20223;-83
2022/12/21 00:56:00;;;;;;;4.57;3.60;;;;;;;5.34;nan;96320.06;5085338;28;20197;-83
2022/12/21 00:58:30;;;;;;;4.60;3.30;;;;;;;5.38;nan;96323.97;5088100;28;20208;-83
2022/12/21 01:01:02;;;;;;;3.87;2.90;;;;;;;5.42;nan;96311.03;5087943;28;20195;-84
2022/12/21 01:03:29;;;;;;;6.33;3.30;;;;;;;5.39;nan;96306.06;5077711;28;20201;-83
2022/12/21 01:05:56;;;;;;;4.07;2.90;;;;;;;5.39;nan;96306.91;5084341;28;20204;-83
2022/12/21 01:08:24;;;;;;;4.13;2.83;;;;;;;5.43;nan;96300.13;5091112;28;20292;-83
2022/12/21 01:10:57;;;;;;;3.57;2.63;;;;;;;5.45;nan;96297.22;5081376;28;20232;-83
2022/12/21 01:13:24;;;;;;;3.67;2.80;;;;;;;5.40;nan;96288.97;5100653;27;20208;-83
2022/12/21 01:15:51;;;;;;;3.30;2.00;;;;;;;5.52;nan;96304.28;5093358;28;20215;-83
2022/12/21 01:18:20;;;;;;;4.47;2.20;;;;;;;5.52;nan;96308.81;5084499;28;20292;-84
2022/12/21 01:20:48;;;;;;;3.23;2.50;;;;;;;5.55;nan;96305.72;5087062;28;20201;-83
2022/12/21 01:23:18;;;;;;;2.57;2.20;;;;;;;5.53;nan;96311.28;5084855;28;20300;-83
2022/12/21 01:25:46;;;;;;;4.63;2.23;;;;;;;5.53;nan;96313.94;5080784;28;20204;-83
2022/12/21 01:28:14;;;;;;;3.83;2.40;;;;;;;5.50;nan;96308.19;5082395;28;20242;-83
2022/12/21 01:30:41;;;;;;;3.17;2.10;;;;;;;5.50;nan;96310.88;5083559;28;20212;-83
2022/12/21 01:33:14;;;;;;;3.30;2.43;;;;;;;5.49;nan;96298.50;5080663;28;20203;-83
2022/12/21 01:35:43;;;;;;;5.43;2.30;;;;;;;5.46;nan;96314.94;5077591;28;20205;-83
2022/12/21 01:38:12;;;;;;;4.10;1.93;;;;;;;5.42;nan;96308.34;5088777;28;20228;-83
2022/12/21 01:40:40;;;;;;;2.80;1.90;;;;;;;5.41;nan;96298.66;5090739;28;20193;-83
2022/12/21 01:43:39;;;;;;;2.60;2.23;;;;;;;5.32;nan;96293.47;5098245;28;20214;-83
2022/12/21 01:46:10;;;;;;;2.40;2.00;;;;;;;5.26;nan;96296.97;5090166;28;20219;-83
2022/12/21 01:48:41;;;;;;;2.47;1.90;;;;;;;5.25;nan;96297.97;5083221;28;20234;-83
2022/12/21 01:51:12;;;;;;;3.17;2.00;;;;;;;5.20;nan;96292.38;5089565;28;20221;-83
2022/12/21 01:53:43;;;;;;;2.13;1.80;;;;;;;5.22;nan;96306.41;5081321;28;20208;-83
2022/12/21 01:56:12;;;;;;;2.70;1.80;;;;;;;5.23;nan;96309.91;5079429;28;20276;-83
2022/12/21 01:58:41;;;;;;;1.93;1.57;;;;;;;5.23;nan;96289.31;5083830;28;20283;-83
2022/12/21 02:01:09;;;;;;;3.00;2.00;;;;;;;5.17;nan;96290.13;5082389;28;20223;-83
2022/12/21 02:03:40;;;;;;;2.77;1.60;;;;;;;5.17;nan;96302.66;5080760;28;20273;-83
2022/12/21 02:06:14;;;;;;;4.30;2.13;;;;;;;5.21;nan;96301.25;5080708;28;20201;-83
2022/12/21 02:08:42;;;;;;;3.00;1.97;;;;;;;5.16;nan;96309.03;5080603;28;20198;-83
2022/12/21 02:11:11;;;;;;;3.17;2.27;;;;;;;5.13;nan;96312.94;5080231;28;20230;-83
2022/12/21 02:13:40;;;;;;;2.90;2.17;;;;;;;5.10;nan;96312.53;5079714;28;20205;-83
2022/12/21 02:16:18;;;;;;;3.20;2.17;;;;;;;5.13;nan;96312.94;5080960;28;20193;-82
2022/12/21 02:19:22;;;;;;;2.67;1.93;;;;;;;5.10;nan;96305.31;5088456;28;20219;-83
2022/12/21 02:21:56;;;;;;;5.60;2.50;;;;;;;5.08;nan;96296.66;5086846;28;20209;-83
2022/12/21 02:25:11;;;;;;;5.73;2.40;;;;;;;5.10;nan;96304.50;5080856;28;20215;-83
2022/12/21 02:28:16;;;;;;;5.70;2.27;;;;;;;5.08;nan;96301.19;5080794;28;20209;-84
2022/12/21 02:31:08;;;;;;;6.67;2.80;;;;;;;5.06;nan;96300.53;5044925;28;20215;-83
2022/12/21 02:33:46;;;;;;;4.57;2.43;;;;;;;5.01;nan;96306.50;5076354;28;20212;-83
2022/12/21 02:36:27;;;;;;;6.37;2.40;;;;;;;4.98;nan;96298.84;5077430;28;20309;-83
2022/12/21 02:39:11;;;;;;;5.27;2.83;;;;;;;4.98;nan;96300.69;5080070;28;20216;-83
2022/12/21 02:41:54;;;;;;;4.37;2.70;;;;;;;4.93;nan;96299.44;5080053;28;20291;-83
2022/12/21 02:44:32;;;;;;;3.03;2.27;;;;;;;4.94;nan;96302.94;5100725;28;20196;-83
2022/12/21 02:47:09;;;;;;;4.67;2.53;;;;;;;4.94;nan;96305.59;5077564;28;20280;-83
2022/12/21 02:49:42;;;;;;;4.03;3.00;;;;;;;5.01;nan;96313.69;5088748;28;20196;-83
2022/12/21 02:52:18;;;;;;;4.03;2.80;;;;;;;5.04;nan;96316.78;5078255;28;20213;-83
2022/12/21 02:54:46;;;;;;;2.90;2.23;;;;;;;5.02;nan;96313.47;5081733;28;20284;-83
2022/12/21 02:57:13;;;;;;;2.60;2.00;;;;;;;4.97;nan;96305.22;5080577;28;20208;-83
2022/12/21 02:59:45;;;;;;;3.43;2.43;;;;;;;4.96;nan;96300.88;5078913;28;20198;-83
2022/12/21 03:02:40;;;;;;;2.47;2.00;;;;;;;4.95;nan;96302.75;5078694;28;20201;-83
2022/12/21 03:05:36;;;;;;;6.20;2.00;;;;;;;5.00;nan;96312.88;5097910;27;20262;-83
2022/12/21 03:08:16;;;;;;;3.20;2.00;;;;;;;5.02;nan;96329.53;5078453;28;20208;-83
2022/12/21 03:10:54;;;;;;;2.87;1.97;;;;;;;5.07;nan;96326.28;5072670;28;20205;-83
2022/12/21 03:13:29;;;;;;;3.20;1.90;;;;;;;5.07;nan;96320.94;5078819;28;20222;-83
2022/12/21 03:16:00;;;;;;;2.47;1.93;;;;;;;5.08;nan;96327.94;5074422;28;20205;-83
2022/12/21 03:18:35;;;;;;;3.33;1.90;;;;;;;5.09;nan;96314.38;5088925;28;20234;-83
2022/12/21 03:21:08;;;;;;;2.93;2.10;;;;;;;5.04;nan;96306.09;5088894;28;20223;-83
2022/12/21 03:23:40;;;;;;;2.33;1.87;;;;;;;5.07;nan;96319.09;5083773;28;20290;-83
2022/12/21 03:26:14;;;;;;;2.83;1.83;;;;;;;5.04;nan;96306.09;5080184;28;20201;-83
2022/12/21 03:28:44;;;;;;;2.37;1.87;;;;;;;5.03;nan;96304.44;5082260;28;20207;-83
2022/12/21 03:31:16;;;;;;;2.57;1.90;;;;;;;5.05;nan;96314.94;5081489;28;20211;-83
2022/12/21 03:33:51;;;;;;;2.83;1.97;;;;;;;5.06;nan;96317.44;5082910;28;20204;-84
2022/12/21 03:36:22;;;;;;;2.77;1.70;;;;;;;5.07;nan;96318.25;5077019;28;20224;-83
2022/12/21 03:38:54;;;;;;;3.83;1.70;;;;;;;5.09;nan;96325.06;5096588;27;20200;-83
2022/12/21 03:41:29;;;;;;;4.07;1.70;;;;;;;5.14;nan;96322.63;5080732;28;20216;-83
2022/12/21 03:44:02;;;;;;;2.47;1.83;;;;;;;5.14;nan;96317.28;5082480;28;20212;-83
2022/12/21 03:46:34;;;;;;;3.17;1.80;;;;;;;5.22;nan;96310.94;5088332;28;20211;-83
2022/12/21 03:49:06;;;;;;;6.20;2.20;;;;;;;5.16;nan;96304.53;5088418;28;20289;-82
2022/12/21 03:51:37;;;;;;;1.90;1.63;;;;;;;5.27;nan;96316.53;5083988;28;20289;-83
2022/12/21 03:54:11;;;;;;;3.17;1.77;;;;;;;5.29;nan;96315.28;5086989;28;20212;-83
2022/12/21 03:56:40;;;;;;;4.03;1.57;;;;;;;5.25;nan;96295.31;5089018;28;20291;-83
2022/12/21 03:59:10;;;;;;;3.60;1.70;;;;;;;5.32;nan;96312.22;5085094;28;20201;-83
2022/12/21 04:01:47;;;;;;;1.90;1.60;;;;;;;5.31;nan;96305.22;5084706;28;20200;-83
2022/12/21 04:04:22;;;;;;;3.10;1.87;;;;;;;5.25;nan;96289.94;5095579;28;20322;-83
2022/12/21 04:06:51;;;;;;;2.37;1.70;;;;;;;5.34;nan;96309.34;5083871;28;20245;-82
2022/12/21 04:09:18;;;;;;;1.60;1.50;;;;;;;5.35;nan;96312.88;5091337;28;20189;-83
2022/12/21 04:14:29;;;;;;;2.23;1.90;;;;;;;5.38;nan;96329.34;5083081;28;20208;-83
2022/12/21 04:16:56;;;;;;;3.73;2.57;;;;;;;5.36;nan;96309.97;5088305;28;20201;-83
2022/12/21 04:28:06;;;;;;;4.67;2.70;;;;;;;5.34;nan;96328.09;5085709;28;20213;-82
2022/12/21 04:30:26;;;;;;;4.37;2.70;;;;;;;5.18;nan;96350.66;5088920;28;20200;-83
2022/12/21 04:32:53;;;;;;;6.37;2.97;;;;;;;5.16;nan;96339.31;5081048;28;20229;-83
2022/12/21 04:35:21;;;;;;;5.53;3.53;;;;;;;5.14;nan;96327.97;5078083;28;20205;-83
2022/12/21 04:37:47;;;;;;;3.93;2.70;;;;;;;5.18;nan;96342.63;5084091;28;20247;-83
2022/12/21 04:40:14;;;;;;;3.93;2.50;;;;;;;5.18;nan;96339.97;5087620;28;20200;-83
2022/12/21 04:42:41;;;;;;;3.90;2.50;;;;;;;5.18;nan;96337.28;5073249;28;20217;-83
2022/12/21 04:45:09;;;;;;;11.40;5.43;;;;;;;5.17;nan;96351.69;5088532;28;20295;-83
2022/12/21 04:47:36;;;;;;;3.23;2.33;;;;;;;5.16;nan;96342.00;5089166;28;20255;-84
2022/12/21 04:50:03;;;;;;;5.13;2.73;;;;;;;5.13;nan;96350.41;5082381;28;20209;-84
2022/12/21 04:52:32;;;;;;;5.40;2.30;;;;;;;5.15;nan;96355.56;5083448;28;20224;-84
2022/12/21 04:54:59;;;;;;;2.93;2.20;;;;;;;5.13;nan;96346.91;5091482;28;20201;-84
2022/12/21 04:57:26;;;;;;;6.53;2.77;;;;;;;5.14;nan;96351.22;5093106;28;20201;-83
2022/12/21 04:59:53;;;;;;;3.57;2.30;;;;;;;5.17;nan;96346.31;5078464;28;20215;-83
2022/12/21 05:02:20;;;;;;;2.60;2.00;;;;;;;5.14;nan;96344.03;5084933;28;20197;-84
2022/12/21 05:04:47;;;;;;;3.67;2.30;;;;;;;5.09;nan;96327.75;5082281;28;20704;-83
2022/12/21 05:07:14;;;;;;;3.50;2.60;;;;;;;5.17;nan;96345.50;5088034;28;20207;-83
2022/12/21 05:09:43;;;;;;;3.97;2.53;;;;;;;5.15;nan;96355.56;5098205;28;20224;-84
2022/12/21 05:12:10;;;;;;;5.13;2.40;;;;;;;5.14;nan;96360.09;5092196;28;20216;-83
2022/12/21 05:14:38;;;;;;;5.33;2.40;;;;;;;5.10;nan;96352.66;5087282;28;20287;-83
2022/12/21 05:17:08;;;;;;;3.20;2.10;;;;;;;5.15;nan;96360.91;5079710;28;20258;-83
2022/12/21 05:19:35;;;;;;;3.50;2.10;;;;;;;5.11;nan;96354.28;5086385;28;20227;-83
2022/12/21 05:22:02;;;;;;;2.93;2.30;;;;;;;5.14;nan;96365.44;5078252;28;20214;-83
2022/12/21 05:24:29;;;;;;;2.60;2.23;;;;;;;5.13;nan;96363.78;5084388;28;20263;-84
2022/12/21 05:26:58;;;;;;;3.53;2.43;;;;;;;5.13;nan;96362.97;5085680;28;20293;-84
2022/12/21 05:29:25;;;;;;;3.73;2.37;;;;;;;5.14;nan;96369.97;5081766;28;20209;-84
2022/12/21 05:31:52;;;;;;;3.10;2.47;;;;;;;5.13;nan;96368.31;5076317;28;20229;-84
2022/12/21 05:34:19;;;;;;;5.70;2.90;;;;;;;5.13;nan;96366.47;5081997;28;20197;-84
2022/12/21 05:36:46;;;;;;;4.87;2.43;;;;;;;5.10;nan;96352.66;5079947;28;20228;-84
2022/12/21 05:39:13;;;;;;;2.90;2.43;;;;;;;5.12;nan;96364.81;5079599;28;20228;-84
2022/12/21 05:41:40;;;;;;;4.77;2.10;;;;;;;5.13;nan;96358.44;5081955;28;20197;-83
2022/12/21 05:44:11;;;;;;;4.97;2.80;;;;;;;5.14;nan;96354.75;5086344;28;20208;-85
2022/12/21 05:46:38;;;;;;;4.10;2.77;;;;;;;5.18;nan;96364.03;5082181;28;20292;-84
2022/12/21 05:49:05;;;;;;;3.30;2.30;;;;;;;5.20;nan;96356.63;5081235;28;20204;-84
2022/12/21 05:51:32;;;;;;;2.80;1.90;;;;;;;5.18;nan;96371.25;5080887;28;20217;-84
2022/12/21 05:53:59;;;;;;;3.27;2.50;;;;;;;5.16;nan;96358.06;5084064;28;20231;-84
2022/12/21 05:56:26;;;;;;;4.40;2.30;;;;;;;5.19;nan;96363.00;5077497;28;20246;-84
2022/12/21 05:58:54;;;;;;;4.73;2.97;;;;;;;5.23;nan;96355.41;5083210;28;20216;-84
2022/12/21 06:01:22;;;;;;;3.43;2.40;;;;;;;5.25;nan;96356.88;5084765;28;20205;-84
2022/12/21 06:03:49;;;;;;;3.93;2.23;;;;;;;5.28;nan;96367.16;5080678;28;20269;-85
2022/12/21 06:06:18;;;;;;;4.30;2.23;;;;;;;5.29;nan;96371.50;5085851;28;20262;-84
2022/12/21 06:08:45;;;;;;;3.93;2.37;;;;;;;5.36;nan;96366.19;5076676;28;20197;-84
2022/12/21 06:11:14;;;;;;;5.73;3.07;;;;;;;5.38;nan;96366.81;5076477;28;20213;-84
2022/12/21 06:13:41;;;;;;;4.60;2.90;;;;;;;5.42;nan;96369.94;5079248;28;20209;-84
2022/12/21 06:16:11;;;;;;;6.60;3.90;;;;;;;5.43;nan;96360.88;5079472;28;20200;-84
2022/12/21 06:18:40;;;;;;;5.17;3.17;;;;;;;5.47;nan;96359.44;5084826;28;20290;-84
2022/12/21 06:21:10;;;;;;;3.97;2.80;;;;;;;5.49;nan;96362.78;5093044;28;20211;-84
2022/12/21 06:23:37;;;;;;;4.27;2.70;;;;;;;5.43;nan;96359.03;5082143;28;20335;-84
2022/12/21 06:26:08;;;;;;;5.73;2.83;;;;;;;5.41;nan;96349.53;5096539;28;20206;-84
2022/12/21 06:28:35;;;;;;;2.70;2.23;;;;;;;5.46;nan;96360.47;5079489;28;20206;-83
2022/12/21 06:31:07;;;;;;;3.40;2.70;;;;;;;5.41;nan;96358.41;5080442;28;20201;-83
2022/12/21 06:33:35;;;;;;;3.40;2.47;;;;;;;5.40;nan;96363.94;5082091;28;20252;-84
2022/12/21 06:36:04;;;;;;;5.80;2.57;;;;;;;5.40;nan;96361.28;5080243;28;20205;-84
2022/12/21 06:38:32;;;;;;;5.23;2.30;;;;;;;5.50;nan;96370.59;5081558;28;20265;-83
2022/12/21 06:41:01;;;;;;;2.83;2.17;;;;;;;5.55;nan;96361.97;5096975;27;20227;-83
2022/12/21 06:43:30;;;;;;;2.83;2.30;;;;;;;5.56;nan;96363.63;5079480;28;20208;-83
2022/12/21 06:46:00;;;;;;;2.67;2.33;;;;;;;5.60;nan;96367.56;5080393;28;20196;-84
2022/12/21 06:48:28;;;;;;;4.30;2.40;;;;;;;5.58;nan;96351.69;5081441;28;20202;-82
2022/12/21 06:50:56;;;;;;;6.03;2.63;;;;;;;5.63;nan;96359.94;5080334;28;20207;-82
2022/12/21 06:53:26;;;;;;;3.27;2.20;;;;;;;5.69;nan;96361.03;5081508;28;20274;-82
2022/12/21 06:55:59;;;;;;;3.00;2.30;;;;;;;5.75;nan;96356.72;5082334;28;20208;-82
2022/12/21 06:58:26;;;;;;;3.93;2.20;;;;;;;5.90;nan;96360.91;5084981;28;20250;-82
2022/12/21 07:00:53;;;;;;;2.03;1.70;;;;;;;5.95;nan;96360.34;5079578;28;20200;-83
2022/12/21 07:03:21;;;;;;;4.97;2.17;;;;;;;6.02;nan;96361.19;5078695;28;20202;-82
2022/12/21 07:05:49;;;;;;;2.50;1.87;;;;;;;6.11;nan;96359.16;5088285;28;20208;-82
2022/12/21 07:08:16;;;;;;;1.70;1.60;;;;;;;6.19;nan;96357.09;5082828;28;20208;-83
2022/12/21 07:10:44;;;;;;;1.97;1.60;;;;;;;6.20;nan;96356.06;5092727;28;20200;-82
2022/12/21 07:13:11;;;;;;;2.67;1.77;;;;;;;6.22;nan;96354.00;5098805;28;20209;-82
2022/12/21 07:15:38;;;;;;;4.27;2.00;;;;;;;6.20;nan;96364.13;5088665;28;20193;-82
2022/12/21 07:18:07;;;;;;;2.20;1.70;;;;;;;6.17;nan;96364.50;5099612;28;20299;-82
2022/12/21 07:20:35;;;;;;;4.30;2.10;;;;;;;6.15;nan;96363.88;5083859;28;20216;-82
2022/12/21 07:23:02;;;;;;;3.97;2.20;;;;;;;5.99;nan;96349.00;5083304;28;20285;-82
2022/12/21 07:25:29;;;;;;;2.23;2.00;;;;;;;6.04;nan;96362.59;5096300;28;20209;-82
2022/12/21 07:27:58;;;;;;;2.80;2.20;;;;;;;5.95;nan;96352.28;5078160;28;20209;-83
2022/12/21 07:30:25;;;;;;;3.97;2.77;;;;;;;5.97;nan;96358.25;5085796;28;20193;-83
2022/12/21 07:32:53;;;;;;;2.90;2.40;;;;;;;5.87;nan;96344.41;5093535;28;20223;-82
2022/12/21 07:35:20;;;;;;;3.03;2.50;;;;;;;5.90;nan;96355.56;5094940;28;20229;-82
2022/12/21 07:37:47;;;;;;;3.57;2.70;;;;;;;5.86;nan;96348.09;5093016;28;20292;-83
2022/12/21 07:40:16;;;;;;;4.43;2.60;;;;;;;5.82;nan;96345.00;5081034;28;20196;-82
2022/12/21 07:42:43;;;;;;;3.67;2.80;;;;;;;5.74;nan;96326.41;5091904;28;20197;-83
2022/12/21 07:45:30;;;;;;;4.90;2.67;;;;;;;5.88;nan;96344.22;5091509;28;20207;-83
2022/12/21 07:47:58;;;;;;;3.50;2.30;;;;;;;5.86;nan;96332.84;5079531;28;20206;-83
2022/12/21 07:50:24;;;;;;;4.00;2.60;;;;;;;5.90;nan;96350.19;5090947;28;20202;-83
2022/12/21 07:52:52;;;;;;;4.37;2.90;;;;;;;5.93;nan;96354.34;5083972;28;20219;-83
2022/12/21 07:55:19;;;;;;;6.10;2.20;;;;;;;5.93;nan;96344.44;5080252;28;20225;-83
2022/12/21 07:57:46;;;;;;;3.90;2.63;;;;;;;5.97;nan;96343.00;5084101;28;20235;-83
2022/12/21 08:00:14;;;;;;;4.00;2.70;;;;;;;5.96;nan;96341.34;5088925;28;20279;-83
2022/12/21 08:02:43;;;;;;;4.00;2.60;;;;;;;6.00;nan;96356.00;5087422;28;20222;-82
2022/12/21 08:05:10;;;;;;;10.47;3.10;;;;;;;6.01;nan;96340.75;5085325;28;20228;-82
2022/12/21 08:07:37;;;;;;;7.07;4.20;;;;;;;5.95;nan;96325.50;5086817;28;20287;-83
2022/12/21 08:10:08;;;;;;;5.87;4.43;;;;;;;6.03;nan;96334.19;5095292;28;20201;-82
2022/12/21 08:12:35;;;;;;;5.37;4.00;;;;;;;6.01;nan;96322.81;5078186;28;20232;-82
2022/12/21 08:15:02;;;;;;;8.10;4.17;;;;;;;6.06;nan;96341.78;5086373;28;20212;-82
2022/12/21 08:17:29;;;;;;;5.70;4.10;;;;;;;6.08;nan;96330.88;5085831;28;20201;-82
2022/12/21 08:19:57;;;;;;;5.17;3.90;;;;;;;6.15;nan;96333.56;5088399;28;20231;-83
2022/12/21 08:22:24;;;;;;;6.17;4.37;;;;;;;6.11;nan;96325.13;5078166;28;20288;-82
2022/12/21 08:24:51;;;;;;;9.30;5.20;;;;;;;6.14;nan;96315.81;5101407;28;20188;-82
2022/12/21 08:27:19;;;;;;;7.43;4.23;;;;;;;6.10;nan;96302.03;5098912;28;20193;-82
2022/12/21 08:29:46;;;;;;;5.57;3.50;;;;;;;6.19;nan;96324.09;5086259;28;20201;-83
2022/12/21 08:32:13;;;;;;;10.67;4.53;;;;;;;6.22;nan;96318.31;5092292;28;20295;-82
2022/12/21 08:34:39;;;;;;;6.17;4.23;;;;;;;6.25;nan;96321.44;5087986;28;20219;-83
2022/12/21 08:37:08;;;;;;;8.47;4.53;;;;;;;6.27;nan;96318.53;5097267;28;20232;-83
2022/12/21 08:39:35;;;;;;;7.03;4.70;;;;;;;6.26;nan;96307.00;5102798;28;20192;-82
2022/12/21 08:42:04;;;;;;;7.07;4.03;;;;;;;6.36;nan;96333.41;5088916;28;20296;-83
2022/12/21 08:44:32;;;;;;;6.53;3.90;;;;;;;6.42;nan;96338.78;5086303;28;20235;-83
2022/12/21 08:46:59;;;;;;;7.77;4.93;;;;;;;6.54;nan;96341.69;5079057;28;20258;-82
2022/12/21 08:49:26;;;;;;;5.30;3.93;;;;;;;6.44;nan;96323.31;5090849;28;20188;-82
2022/12/21 08:51:53;;;;;;;8.87;5.00;;;;;;;6.55;nan;96337.94;5089891;28;20296;-82
2022/12/21 08:54:21;;;;;;;7.27;4.47;;;;;;;6.60;nan;96340.84;5099078;28;20219;-82
2022/12/21 08:56:48;;;;;;;7.20;3.70;;;;;;;6.58;nan;96340.22;5095474;28;20242;-82
2022/12/21 08:59:15;;;;;;;5.57;3.57;;;;;;;6.58;nan;96342.91;5088180;28;20203;-82
2022/12/21 09:01:42;;;;;;;14.37;4.20;;;;;;;6.59;nan;96352.63;5090902;28;20208;-81
2022/12/21 09:04:09;;;;;;;11.00;3.97;;;;;;;6.56;nan;96354.88;5087694;28;20205;-81
2022/12/21 09:06:36;;;;;;;7.97;4.27;;;;;;;6.54;nan;96348.91;5090193;28;20299;-82
2022/12/21 09:09:03;;;;;;;7.10;3.80;;;;;;;6.53;nan;96339.22;5090104;28;20205;-82
2022/12/21 09:11:32;;;;;;;8.20;3.63;;;;;;;6.51;nan;96343.94;5084400;28;20214;-82
2022/12/21 09:14:00;;;;;;;7.60;3.70;;;;;;;6.56;nan;96363.75;5094948;28;20220;-82
2022/12/21 09:16:27;;;;;;;8.13;4.03;;;;;;;6.59;nan;96370.56;5078207;28;20198;-82
2022/12/21 09:18:54;;;;;;;8.07;4.47;;;;;;;6.59;nan;96374.09;5090729;28;20216;-82
2022/12/21 09:21:23;;;;;;;7.93;4.53;;;;;;;6.57;nan;96368.09;5089030;28;20311;-82
2022/12/21 09:23:51;;;;;;;8.37;4.70;;;;;;;6.53;nan;96380.28;5085729;28;20208;-82
2022/12/21 09:26:19;;;;;;;8.17;5.20;;;;;;;6.41;nan;96368.47;5086473;28;20205;-81
2022/12/21 09:28:47;;;;;;;12.97;6.70;;;;;;;6.46;nan;96376.75;5090245;28;20200;-81
2022/12/21 09:31:16;;;;;;;9.97;6.37;;;;;;;6.49;nan;96387.06;5090727;28;20209;-81
2022/12/21 09:33:44;;;;;;;11.23;6.20;;;;;;;6.42;nan;96367.44;5089694;28;20217;-82
2022/12/21 09:36:12;;;;;;;12.80;6.40;;;;;;;6.49;nan;96373.66;5090129;28;20331;-82
2022/12/21 09:38:40;;;;;;;11.03;6.30;;;;;;;6.47;nan;96368.47;5085192;28;20220;-81
2022/12/21 09:41:27;;;;;;;12.57;6.43;;;;;;;6.56;nan;96384.38;5075967;28;20239;-82
2022/12/21 09:44:11;;;;;;;14.60;6.90;;;;;;;6.55;nan;96377.41;5076132;28;20216;-82
2022/12/21 09:46:42;;;;;;;14.57;7.13;;;;;;;6.58;nan;96382.31;5088287;28;20209;-82
2022/12/21 09:49:16;;;;;;;13.13;7.00;;;;;;;6.60;nan;96381.09;5091329;28;20217;-82
2022/12/21 09:51:51;;;;;;;10.87;6.63;;;;;;;6.62;nan;96387.09;5086002;28;20225;-82
2022/12/21 09:54:25;;;;;;;9.17;6.03;;;;;;;6.65;nan;96389.34;5090753;28;20591;-82
2022/12/21 09:56:54;;;;;;;12.03;6.37;;;;;;;6.60;nan;96382.97;5089833;28;20204;-81
2022/12/21 09:59:23;;;;;;;9.60;6.20;;;;;;;6.66;nan;96380.28;5086355;28;20295;-82
2022/12/21 10:02:01;;;;;;;9.00;6.13;;;;;;;6.70;nan;96384.22;5090290;28;20208;-83
2022/12/21 10:04:44;;;;;;;14.30;6.80;;;;;;;6.79;nan;96376.78;5079536;28;20196;-83
2022/12/21 10:07:27;;;;;;;10.83;6.40;;;;;;;6.76;nan;96359.25;5080653;28;20213;-83
2022/12/21 10:10:08;;;;;;;13.47;5.67;;;;;;;6.87;nan;96367.72;5073803;28;20229;-83
2022/12/21 10:12:43;;;;;;;14.17;5.80;;;;;;;6.97;nan;96368.13;5082371;28;20213;-82
2022/12/21 10:15:22;;;;;;;10.00;5.83;;;;;;;6.96;nan;96361.94;5087182;28;20225;-81
2022/12/21 10:18:05;;;;;;;8.80;6.00;;;;;;;7.04;nan;96358.19;5083981;28;20217;-82
2022/12/21 10:20:46;;;;;;;9.83;5.87;;;;;;;7.09;nan;96353.84;5072527;28;20251;-83
2022/12/21 10:23:20;;;;;;;12.27;6.67;;;;;;;7.13;nan;96354.28;5083078;28;20205;-83
2022/12/21 10:25:48;;;;;;;8.53;6.00;;;;;;;7.18;nan;96349.09;5088077;28;20204;-83
2022/12/21 10:28:27;;;;;;;9.23;5.70;;;;;;;7.20;nan;96345.16;5086183;28;20193;-83
2022/12/21 10:31:04;;;;;;;8.83;5.93;;;;;;;7.27;nan;96328.22;5090750;28;20201;-83
2022/12/21 10:33:32;;;;;;;6.83;5.40;;;;;;;7.26;nan;96329.25;5087401;28;20216;-82
2022/12/21 10:36:03;;;;;;;12.37;5.93;;;;;;;7.32;nan;96333.75;5086128;28;20262;-83
2022/12/21 10:38:34;;;;;;;10.63;5.73;;;;;;;7.38;nan;96317.66;5088700;28;20215;-82
2022/12/21 10:41:04;;;;;;;8.73;5.30;;;;;;;7.43;nan;96304.41;5083968;28;20265;-82
2022/12/21 10:43:37;;;;;;;7.70;5.37;;;;;;;7.51;nan;96301.47;5089601;28;20193;-82
2022/12/21 10:46:05;;;;;;;7.63;5.00;;;;;;;7.55;nan;96302.72;5087779;28;20229;-82
2022/12/21 10:48:32;;;;;;;10.43;4.70;;;;;;;7.63;nan;96284.69;5086324;28;20283;-82
2022/12/21 10:51:13;;;;;;;9.63;4.87;;;;;;;7.71;nan;96285.28;5087828;28;20288;-82
2022/12/21 10:53:41;;;;;;;6.93;4.63;;;;;;;7.82;nan;96283.78;5079718;28;20224;-82
2022/12/21 10:56:09;;;;;;;6.90;4.57;;;;;;;7.91;nan;96279.81;5079828;28;20201;-82
2022/12/21 10:58:37;;;;;;;7.33;5.10;;;;;;;8.03;nan;96288.00;5086763;28;20221;-82
2022/12/21 11:01:17;;;;;;;8.00;5.03;;;;;;;8.10;nan;96273.47;5090031;28;20197;-82
2022/12/21 11:03:44;;;;;;;6.83;4.97;;;;;;;8.22;nan;96266.38;5089490;28;20204;-82
2022/12/21 11:06:13;;;;;;;7.43;5.00;;;;;;;8.27;nan;96263.84;5088541;28;20203;-82
2022/12/21 11:08:46;;;;;;;7.23;4.47;;;;;;;8.32;nan;96253.31;5089504;28;20287;-82
2022/12/21 11:11:28;;;;;;;8.97;4.40;;;;;;;8.55;nan;96268.03;5082983;28;20207;-83
2022/12/21 11:14:00;;;;;;;7.03;4.70;;;;;;;8.64;nan;96269.41;5089074;28;20224;-83
2022/12/21 11:16:32;;;;;;;9.93;4.83;;;;;;;8.72;nan;96266.44;5073628;28;20210;-82
2022/12/21 11:19:01;;;;;;;7.03;4.70;;;;;;;8.88;nan;96275.81;5087071;28;20225;-83
2022/12/21 11:21:39;;;;;;;12.20;5.47;;;;;;;8.82;nan;96282.09;5078504;28;20243;-83
2022/12/21 11:24:14;;;;;;;10.73;5.43;;;;;;;8.62;nan;96287.63;5081552;28;20220;-83
2022/12/21 11:26:44;;;;;;;7.80;4.50;;;;;;;8.53;nan;96283.56;5076387;28;20201;-83
2022/12/21 11:29:20;;;;;;;9.27;4.40;;;;;;;8.46;nan;96285.47;5080617;28;20282;-83
2022/12/21 11:31:49;;;;;;;9.27;4.70;;;;;;;8.47;nan;96279.06;5086967;28;20212;-83
2022/12/21 11:34:30;;;;;;;8.33;4.63;;;;;;;8.42;nan;96277.00;5090071;28;20236;-82
2022/12/21 11:37:00;;;;;;;7.90;4.57;;;;;;;8.39;nan;96277.47;5093338;28;20252;-82
2022/12/21 11:39:28;;;;;;;6.50;4.57;;;;;;;8.40;nan;96283.69;5076207;28;20216;-83
2022/12/21 11:41:55;;;;;;;7.87;5.20;;;;;;;8.38;nan;96275.81;5073147;28;20216;-82
2022/12/21 11:44:29;;;;;;;8.87;4.40;;;;;;;8.32;nan;96274.84;5087801;28;20201;-83
2022/12/21 11:47:16;;;;;;;9.17;4.40;;;;;;;8.26;nan;96283.72;5087917;28;20209;-83
2022/12/21 11:50:10;;;;;;;6.73;4.07;;;;;;;8.31;nan;96283.94;5085096;28;20209;-83
2022/12/21 11:52:56;;;;;;;12.37;4.43;;;;;;;8.33;nan;96283.72;5072128;28;20204;-83
2022/12/21 11:55:31;;;;;;;8.93;4.17;;;;;;;8.28;nan;96273.56;5078218;28;20221;-83
2022/12/21 11:58:07;;;;;;;6.53;3.43;;;;;;;8.24;nan;96283.13;5090794;28;20212;-82
2022/12/21 12:00:43;;;;;;;4.60;3.40;;;;;;;8.25;nan;96284.75;5090942;28;20204;-82
2022/12/21 12:03:33;;;;;;;7.20;3.80;;;;;;;8.24;nan;96288.50;5092360;28;20203;-83
2022/12/21 12:06:16;;;;;;;6.30;3.60;;;;;;;8.24;nan;96296.59;5091567;28;20205;-83
2022/12/21 12:09:02;;;;;;;4.70;3.03;;;;;;;8.23;nan;96304.88;5087424;28;20272;-82
2022/12/21 12:11:39;;;;;;;4.37;3.20;;;;;;;8.22;nan;96298.66;5090178;28;20304;-83
2022/12/21 12:14:23;;;;;;;4.93;3.30;;;;;;;8.20;nan;96289.16;5074945;28;20311;-83
2022/12/21 12:17:03;;;;;;;4.63;3.10;;;;;;;8.26;nan;96299.84;5086006;28;20204;-82
2022/12/21 12:19:39;;;;;;;3.37;2.47;;;;;;;8.17;nan;96301.16;5093346;28;20250;-83
2022/12/21 12:22:23;;;;;;;4.23;3.20;;;;;;;8.20;nan;96306.13;5091213;28;20264;-82
2022/12/21 12:25:23;;;;;;;4.63;3.57;;;;;;;8.25;nan;96298.22;5077269;28;20207;-82
2022/12/21 12:28:05;;;;;;;4.07;2.83;;;;;;;8.21;nan;96302.38;5058843;28;20209;-81
2022/12/21 12:30:44;;;;;;;5.47;3.43;;;;;;;8.21;nan;96286.25;5091774;28;20211;-82